NCAR-RAP Real-Time Weather Data

Output produced by METARs form (17 December 2018  15:36 UTC)
found at http://weather.rap.ucar.edu/surface/
 
RJCB 171100Z 19003KT 9999 FEW040 M08/M08 Q1003
RJCB 171000Z 30004KT 9999 FEW040 M04/M07 Q1003
RJCB 170900Z VRB02KT 9999 FEW040 M03/M05 Q1003
RJCB 170800Z 34007KT 9999 FEW040 M01/M04 Q1003
RJCB 170700Z 36010KT 9999 FEW040 01/M03 Q1002
RJCB 170600Z 35007KT 9999 FEW040 02/M02 Q1002
RJCB 170500Z 35004KT 9999 FEW040 03/M02 Q1001
RJCB 170400Z 03003KT 9999 FEW040 03/M02 Q1002
RJCB 170300Z 33004KT 9999 FEW030 SCT050 02/M00 Q1002
RJCB 170200Z VRB02KT 9999 FEW030 01/00 Q1003
RJCB 170100Z VRB02KT 9999 FEW030 M02/M02 Q1004
RJCB 170000Z VRB01KT 9999 FEW030 M04/M05 Q1004
RJCB 162321Z VRB03KT 5000 BR FEW001 M05/M06 Q1004 RMK 1ST001 A2965 9999W-NE
RJCB 162310Z VRB03KT 3200 BCFG BR FEW001 M06/M07 Q1004 RMK 1ST001 A2965 9999W-NE
RJCB 162303Z 16003KT 090V240 2400 R35/0700VP2000U BCFG BR FEW001 M07/M07 Q1004 RMK 2ST001 A2965 9999NW-NE
RJCB 162300Z VRB02KT 2000 R35/0700VP2000U BCFG BR FEW001 M07/M08 Q1004
RJCB 162245Z 08003KT 040V120 1000 R35/P2000N BCFG BR FEW001 M08/M09 Q1003 RMK 2ST001 A2964
RJCB 162240Z 08003KT 040V130 0900 R35/0700VP2000U FZFG FEW001 M07/M08 Q1003 RMK 2ST001 A2964
RJCB 161100Z VRB02KT 9999 FEW030 BKN/// M06/M10 Q1012
RJCB 161000Z 32003KT 9999 FEW030 BKN/// M06/M10 Q1013
RJCB 160900Z 33003KT 9999 FEW030 BKN/// M05/M09 Q1013
RJCB 160800Z 19003KT 160V220 9999 FEW030 BKN/// M06/M09 Q1014
RJCB 160700Z 00000KT 9999 FEW030 BKN/// M04/M08 Q1014
RJCB 160600Z 34006KT 9999 FEW040 BKN/// M03/M08 Q1014
RJCB 160500Z VRB02KT 9999 FEW030 BKN/// M01/M07 Q1015
RJCB 160400Z 34003KT 9999 FEW030 BKN/// M02/M08 Q1015
RJCB 160300Z 36003KT 330V050 9999 FEW030 BKN/// M04/M09 Q1016
RJCB 160200Z 14003KT 9999 FEW030 SCT/// M01/M08 Q1017
RJCB 160100Z 18006KT 9999 FEW030 SCT/// M01/M09 Q1018
RJCB 160000Z 16004KT 9999 FEW030 BKN/// M05/M11 Q1018
RJCB 151100Z VRB01KT 9999 FEW040 M14/M16 Q1021
RJCB 151000Z 00000KT 9999 FEW040 M11/M16 Q1021
RJCB 150900Z VRB02KT 9999 FEW040 M12/M17 Q1021
RJCB 150800Z VRB01KT 9999 FEW040 M09/M15 Q1020
RJCB 150700Z 36002KT 9999 FEW040 M03/M12 Q1020
RJCB 150600Z 00000KT 9999 FEW040 M02/M13 Q1020
RJCB 150500Z 16002KT 9999 FEW040 M02/M13 Q1020
RJCB 150400Z 00000KT 9999 FEW040 M02/M13 Q1020